Vona, Colorado
Current Conditions -  °F | °C
As of 6:53 PM on Friday 19 Dec 2014 (Local Time) from KITR Reporting Station
Clear Clear  
Wind Chill: 19°   Ceiling: Unl
Heat Index: 27°   Visibility: 10mi
Dew Point: 22°   Wind: 7mph
Humidity: 81%   Direction: 240°WSW
Pressure: 30.05"   Gusts: NA
Location:  39.3°N, 102.74°W
Report Text: KITR 200153Z AUTO 24006KT 10SM CLR M03/M06 A3005 RMK AO2 SLP202 T10281056
Loading
Personal Weather Stations






























Interactive Weather Map New forecast layout! Learn more

10-Day Weather Forecast

Advertisements
Track Severe Weather on mobile